createdAt,value
2019-01-21T00:01:49.478Z,-5.20
2019-01-21T00:04:19.277Z,-5.20
2019-01-21T00:06:49.973Z,-5.20
2019-01-21T00:09:19.429Z,-5.30
2019-01-21T00:11:50.351Z,-5.20
2019-01-21T00:14:19.838Z,-5.30
2019-01-21T00:16:49.473Z,-5.50
2019-01-21T00:19:18.980Z,-5.50
2019-01-21T00:21:48.495Z,-5.60
2019-01-21T00:24:17.910Z,-5.50
2019-01-21T00:26:48.634Z,-5.50
2019-01-21T00:29:18.059Z,-5.50
2019-01-21T00:31:47.575Z,-5.50
2019-01-21T00:34:17.055Z,-5.50
2019-01-21T00:36:48.064Z,-5.30
2019-01-21T00:39:17.544Z,-5.40
2019-01-21T00:41:48.264Z,-5.40
2019-01-21T00:44:17.679Z,-5.40
2019-01-21T00:46:47.135Z,-5.50
2019-01-21T00:49:16.607Z,-5.40
2019-01-21T00:51:46.046Z,-5.40
2019-01-21T00:54:15.467Z,-5.50
2019-01-21T00:56:46.284Z,-5.40
2019-01-21T00:59:15.704Z,-5.60
2019-01-21T01:01:46.423Z,-5.60
2019-01-21T01:04:15.835Z,-5.50
2019-01-21T01:06:46.560Z,-5.50
2019-01-21T01:09:15.971Z,-5.50
2019-01-21T01:11:46.690Z,-5.60
2019-01-21T01:14:16.102Z,-5.60
2019-01-21T01:16:47.022Z,-5.60
2019-01-21T01:19:16.441Z,-5.70
2019-01-21T01:21:47.254Z,-5.70
2019-01-21T01:24:16.780Z,-5.80
2019-01-21T01:26:47.559Z,-5.70
2019-01-21T01:29:16.966Z,-5.80
2019-01-21T01:31:47.803Z,-5.80
2019-01-21T01:34:17.290Z,-5.70
2019-01-21T01:36:46.779Z,-5.70
2019-01-21T01:39:16.310Z,-5.70
2019-01-21T01:41:45.807Z,-5.80
2019-01-21T01:44:15.267Z,-5.70
2019-01-21T01:46:46.527Z,-5.70
2019-01-21T01:49:15.970Z,-5.70
2019-01-21T01:51:45.455Z,-5.70
2019-01-21T01:54:14.903Z,-5.60
2019-01-21T01:56:45.893Z,-5.60
2019-01-21T01:59:15.403Z,-5.70
2019-01-21T02:01:46.390Z,-5.70
2019-01-21T02:04:15.946Z,-5.80
2019-01-21T02:06:46.943Z,-5.80
2019-01-21T02:09:16.391Z,-5.80
2019-01-21T02:11:47.280Z,-5.90
2019-01-21T02:14:16.729Z,-5.90
2019-01-21T02:16:46.138Z,-5.80
2019-01-21T02:19:15.619Z,-5.90
2019-01-21T02:21:45.095Z,-6.00
2019-01-21T02:24:15.087Z,-5.90
2019-01-21T02:26:49.328Z,-5.90
2019-01-21T02:29:22.036Z,-5.80
2019-01-21T02:32:18.640Z,-5.80
2019-01-21T02:34:54.091Z,-5.80
2019-01-21T02:37:35.728Z,-5.90
2019-01-21T02:40:24.954Z,-5.90
2019-01-21T02:43:15.479Z,-5.80
2019-01-21T02:46:02.017Z,-5.80
2019-01-21T02:48:46.735Z,-5.90
2019-01-21T02:51:37.773Z,-5.90
2019-01-21T02:54:22.415Z,-6.00
2019-01-21T02:56:59.391Z,-6.00
2019-01-21T02:59:47.284Z,-6.00
2019-01-21T03:02:36.135Z,-6.00
2019-01-21T03:05:20.850Z,-6.10
2019-01-21T03:08:17.920Z,-6.10
2019-01-21T03:11:26.026Z,-6.20
2019-01-21T03:14:26.354Z,-6.20
2019-01-21T03:17:16.879Z,-6.20
2019-01-21T03:19:55.222Z,-6.20
2019-01-21T03:22:41.269Z,-6.20
2019-01-21T03:25:26.048Z,-6.20
2019-01-21T03:28:22.756Z,-6.20
2019-01-21T03:31:13.696Z,-6.20
2019-01-21T03:33:51.739Z,-6.40
2019-01-21T03:36:39.322Z,-6.40
2019-01-21T03:39:28.385Z,-6.20
2019-01-21T03:42:08.596Z,-6.10
2019-01-21T03:44:46.792Z,-6.10
2019-01-21T03:47:28.483Z,-6.00
2019-01-21T03:50:26.747Z,-6.10
2019-01-21T03:53:05.216Z,-6.10
2019-01-21T03:55:36.239Z,-6.20
2019-01-21T03:58:28.518Z,-6.10
2019-01-21T04:01:02.690Z,-6.20
2019-01-21T04:03:38.330Z,-6.30
2019-01-21T04:06:22.848Z,-6.30
2019-01-21T04:09:07.136Z,-6.30
2019-01-21T04:11:47.059Z,-6.30
2019-01-21T04:14:47.084Z,-6.40
2019-01-21T04:17:28.691Z,-6.40
2019-01-21T04:20:04.104Z,-6.40
2019-01-21T04:22:56.192Z,-6.50
2019-01-21T04:25:37.619Z,-6.60
2019-01-21T04:28:16.200Z,-6.60
2019-01-21T04:30:51.723Z,-6.70
2019-01-21T04:33:32.791Z,-6.60
2019-01-21T04:36:20.508Z,-6.60
2019-01-21T04:39:08.065Z,-6.60
2019-01-21T04:41:58.888Z,-6.60
2019-01-21T04:44:40.579Z,-6.60
2019-01-21T04:47:39.112Z,-6.70
2019-01-21T04:50:20.679Z,-6.70
2019-01-21T04:53:06.695Z,-6.70
2019-01-21T04:55:58.734Z,-6.80
2019-01-21T04:58:47.199Z,-6.70
2019-01-21T05:01:36.588Z,-6.90
2019-01-21T05:04:15.070Z,-7.00
2019-01-21T05:06:54.705Z,-7.00
2019-01-21T05:09:51.652Z,-6.80
2019-01-21T05:12:52.822Z,-6.80
2019-01-21T05:15:25.675Z,-6.90
2019-01-21T05:18:01.495Z,-6.80
2019-01-21T05:20:47.451Z,-6.80
2019-01-21T05:23:32.014Z,-6.80
2019-01-21T05:26:21.527Z,-6.80
2019-01-21T05:28:57.262Z,-6.80
2019-01-21T05:31:29.933Z,-6.80
2019-01-21T05:34:05.258Z,-6.90
2019-01-21T05:36:47.912Z,-7.00
2019-01-21T05:39:23.454Z,-6.90
2019-01-21T05:42:02.359Z,-6.90
2019-01-21T05:44:53.209Z,-7.00
2019-01-21T05:47:48.320Z,-7.00
2019-01-21T05:50:30.051Z,-7.00
2019-01-21T05:53:05.685Z,-7.10
2019-01-21T05:56:09.922Z,-7.10
2019-01-21T05:58:57.403Z,-7.00
2019-01-21T06:01:46.123Z,-7.10
2019-01-21T06:04:30.666Z,-7.10
2019-01-21T06:07:07.416Z,-7.10
2019-01-21T06:09:52.138Z,-7.10
2019-01-21T06:12:41.530Z,-7.20
2019-01-21T06:15:23.018Z,-7.10
2019-01-21T06:18:01.207Z,-7.20
2019-01-21T06:20:36.172Z,-7.20
2019-01-21T06:23:25.205Z,-7.20
2019-01-21T06:26:17.456Z,-7.20
2019-01-21T06:28:55.879Z,-7.30
2019-01-21T06:31:55.655Z,-7.20
2019-01-21T06:34:43.265Z,-7.30
2019-01-21T06:37:27.740Z,-7.20
2019-01-21T06:40:12.099Z,-7.20
2019-01-21T06:42:48.994Z,-7.10
2019-01-21T06:45:44.049Z,-7.10
2019-01-21T06:48:34.654Z,-7.20
2019-01-21T06:51:23.942Z,-7.20
2019-01-21T06:54:05.526Z,-7.30
2019-01-21T06:56:50.243Z,-7.20
2019-01-21T06:59:39.331Z,-7.10
2019-01-21T07:02:22.166Z,-7.20
2019-01-21T07:05:14.653Z,-7.30
2019-01-21T07:08:17.400Z,-7.30
2019-01-21T07:11:02.293Z,-7.20
2019-01-21T07:13:54.605Z,-7.40
2019-01-21T07:16:54.859Z,-7.40
2019-01-21T07:19:32.955Z,-7.30
2019-01-21T07:22:15.223Z,-7.30
2019-01-21T07:24:53.511Z,-7.20
2019-01-21T07:27:46.849Z,-7.20
2019-01-21T07:30:25.487Z,-7.10
2019-01-21T07:33:07.235Z,-7.00
2019-01-21T07:36:16.185Z,-6.90
2019-01-21T07:39:00.015Z,-6.80
2019-01-21T07:41:48.993Z,-6.80
2019-01-21T07:44:44.142Z,-6.80
2019-01-21T07:47:22.683Z,-6.70
2019-01-21T07:50:04.165Z,-6.20
2019-01-21T07:52:47.295Z,-5.40
2019-01-21T07:55:45.503Z,-4.90
2019-01-21T07:58:50.678Z,-4.30
2019-01-21T08:01:27.190Z,-3.70
2019-01-21T08:04:22.519Z,-3.10
2019-01-21T08:07:08.559Z,-2.80
2019-01-21T08:10:00.842Z,-2.00
2019-01-21T08:12:49.997Z,-1.30
2019-01-21T08:15:26.417Z,-0.90
2019-01-21T08:18:11.283Z,-0.60
2019-01-21T08:20:47.246Z,-0.70
2019-01-21T08:23:35.091Z,0.10
2019-01-21T08:26:39.971Z,0.10
2019-01-21T08:29:18.580Z,0.70
2019-01-21T08:31:55.383Z,1.50
2019-01-21T08:34:47.622Z,1.70
2019-01-21T08:37:21.262Z,1.70
2019-01-21T08:40:06.027Z,2.00
2019-01-21T08:43:07.427Z,2.30
2019-01-21T08:45:48.979Z,2.90
2019-01-21T08:48:24.601Z,3.90
2019-01-21T08:51:05.676Z,3.60
2019-01-21T08:53:57.690Z,3.40
2019-01-21T08:56:52.533Z,3.90
2019-01-21T08:59:27.837Z,4.50
2019-01-21T09:02:20.967Z,4.00
2019-01-21T09:05:10.328Z,3.40
2019-01-21T09:08:19.239Z,3.20
2019-01-21T09:11:11.461Z,4.30
2019-01-21T09:13:59.942Z,3.70
2019-01-21T09:16:44.533Z,3.90
2019-01-21T09:19:42.895Z,4.10
2019-01-21T09:22:22.441Z,4.00
2019-01-21T09:24:57.750Z,4.40
2019-01-21T09:27:30.462Z,4.60
2019-01-21T09:30:03.203Z,4.60
2019-01-21T09:32:55.527Z,5.80
2019-01-21T09:35:45.646Z,7.50
2019-01-21T09:38:24.066Z,7.70
2019-01-21T09:40:56.867Z,8.60
2019-01-21T09:43:32.196Z,9.10
2019-01-21T09:46:07.498Z,8.50
2019-01-21T09:48:36.082Z,8.20
2019-01-21T09:51:06.789Z,8.50
2019-01-21T09:53:36.232Z,8.90
2019-01-21T09:56:07.009Z,8.80
2019-01-21T09:58:36.430Z,9.20
2019-01-21T10:01:07.735Z,9.00
2019-01-21T10:03:37.454Z,10.00
2019-01-21T10:06:08.249Z,10.00
2019-01-21T10:08:52.535Z,10.10
2019-01-21T10:11:32.383Z,10.90
2019-01-21T10:14:09.577Z,10.70
2019-01-21T10:16:47.946Z,10.80
2019-01-21T10:19:23.352Z,10.50
2019-01-21T10:22:07.714Z,9.70
2019-01-21T10:24:40.483Z,11.00
2019-01-21T10:27:23.268Z,11.40
2019-01-21T10:30:07.638Z,11.60
2019-01-21T10:32:44.945Z,11.20
2019-01-21T10:35:26.871Z,11.00
2019-01-21T10:38:28.340Z,11.50
2019-01-21T10:41:07.070Z,11.50
2019-01-21T10:44:07.192Z,11.70
2019-01-21T10:46:43.874Z,11.20
2019-01-21T10:49:16.651Z,11.60
2019-01-21T10:51:59.523Z,11.70
2019-01-21T10:54:44.234Z,11.60
2019-01-21T10:57:19.672Z,12.10
2019-01-21T11:00:13.621Z,12.30
2019-01-21T11:03:02.697Z,12.00
2019-01-21T11:06:07.454Z,12.10
2019-01-21T11:08:49.493Z,12.30
2019-01-21T11:11:23.538Z,12.20
2019-01-21T11:13:59.327Z,11.00
2019-01-21T11:16:48.849Z,10.70
2019-01-21T11:19:24.263Z,10.50
2019-01-21T11:21:57.006Z,10.40
2019-01-21T11:24:49.375Z,10.80
2019-01-21T11:27:35.416Z,11.80
2019-01-21T11:30:27.778Z,12.10
2019-01-21T11:33:16.816Z,10.90
2019-01-21T11:35:52.139Z,10.00
2019-01-21T11:38:39.823Z,10.90
2019-01-21T11:41:24.561Z,11.70
2019-01-21T11:44:25.999Z,11.00
2019-01-21T11:47:15.402Z,11.20
2019-01-21T11:49:48.081Z,11.30
2019-01-21T11:52:43.125Z,11.80
2019-01-21T11:55:25.425Z,11.30
2019-01-21T11:58:07.390Z,10.80
2019-01-21T12:01:05.899Z,10.00
2019-01-21T12:03:50.960Z,9.80
2019-01-21T12:06:23.747Z,10.20
2019-01-21T12:09:14.720Z,8.70
2019-01-21T12:11:50.371Z,8.40
2019-01-21T12:14:34.910Z,7.60
2019-01-21T12:17:34.790Z,8.10
2019-01-21T12:20:19.327Z,9.00
2019-01-21T12:23:17.344Z,9.90
2019-01-21T12:26:06.602Z,10.30
2019-01-21T12:28:39.301Z,10.90
2019-01-21T12:31:32.946Z,11.20
2019-01-21T12:34:11.521Z,11.00
2019-01-21T12:36:48.606Z,10.30
2019-01-21T12:39:23.803Z,10.70
2019-01-21T12:42:03.335Z,9.90
2019-01-21T12:44:54.192Z,9.60
2019-01-21T12:47:28.202Z,8.80
2019-01-21T12:50:16.963Z,8.70
2019-01-21T12:52:53.707Z,8.70
2019-01-21T12:55:49.289Z,9.00
2019-01-21T12:58:24.930Z,9.50
2019-01-21T13:01:11.131Z,9.70
2019-01-21T13:03:52.978Z,9.90
2019-01-21T13:06:45.183Z,9.40
2019-01-21T13:09:37.450Z,9.40
2019-01-21T13:12:34.123Z,8.40
2019-01-21T13:15:18.882Z,7.00
2019-01-21T13:18:24.911Z,6.10
2019-01-21T13:21:05.835Z,4.80
2019-01-21T13:23:44.604Z,4.10
2019-01-21T13:26:47.691Z,3.40
2019-01-21T13:29:20.466Z,3.00
2019-01-21T13:32:06.596Z,3.10
2019-01-21T13:34:57.519Z,2.90
2019-01-21T13:37:36.971Z,2.80
2019-01-21T13:40:15.526Z,2.30
2019-01-21T13:42:55.575Z,2.00
2019-01-21T13:45:45.091Z,1.80
2019-01-21T13:48:20.703Z,2.20
2019-01-21T13:50:56.138Z,1.80
2019-01-21T13:53:52.484Z,1.50
2019-01-21T13:56:29.361Z,1.40
2019-01-21T13:59:18.770Z,1.30
2019-01-21T14:01:51.515Z,1.20
2019-01-21T14:04:50.522Z,1.30
2019-01-21T14:07:24.775Z,1.30
2019-01-21T14:10:06.206Z,1.10
2019-01-21T14:12:40.748Z,1.20
2019-01-21T14:15:22.218Z,1.30
2019-01-21T14:18:01.964Z,1.30
2019-01-21T14:20:46.474Z,1.30
2019-01-21T14:23:27.804Z,1.20
2019-01-21T14:26:07.690Z,1.00
2019-01-21T14:28:58.531Z,0.80
2019-01-21T14:31:49.211Z,0.90
2019-01-21T14:34:49.368Z,1.10
2019-01-21T14:37:38.431Z,0.60
2019-01-21T14:40:29.229Z,0.60
2019-01-21T14:43:19.532Z,0.60
2019-01-21T14:45:52.308Z,0.60
2019-01-21T14:48:27.900Z,0.50
2019-01-21T14:51:14.065Z,0.60
2019-01-21T14:53:49.602Z,0.50
2019-01-21T14:56:26.684Z,0.50
2019-01-21T14:59:07.912Z,0.30
2019-01-21T15:01:44.866Z,0.20
2019-01-21T15:04:41.917Z,0.20
2019-01-21T15:07:18.613Z,0.00
2019-01-21T15:09:57.524Z,-0.20
2019-01-21T15:12:48.159Z,-0.20
2019-01-21T15:15:40.667Z,-0.20
2019-01-21T15:18:31.368Z,-0.20
2019-01-21T15:21:09.803Z,-0.30
2019-01-21T15:23:59.089Z,-0.20
2019-01-21T15:26:39.041Z,-0.30
2019-01-21T15:29:29.840Z,-0.50
2019-01-21T15:32:26.260Z,-0.50
2019-01-21T15:35:22.567Z,-0.60
2019-01-21T15:38:09.951Z,-0.80
2019-01-21T15:41:02.051Z,-0.90
2019-01-21T15:43:40.791Z,-1.10
2019-01-21T15:46:34.592Z,-1.10
2019-01-21T15:49:07.291Z,-1.20
2019-01-21T15:51:50.235Z,-1.40
2019-01-21T15:54:40.732Z,-1.50
2019-01-21T15:57:21.931Z,-1.60
2019-01-21T15:59:57.279Z,-1.70
2019-01-21T16:02:34.394Z,-1.60
2019-01-21T16:05:07.221Z,-1.70
2019-01-21T16:07:50.490Z,-2.00
2019-01-21T16:10:31.898Z,-2.10
2019-01-21T16:13:16.203Z,-2.10
2019-01-21T16:15:52.943Z,-2.10
2019-01-21T16:18:28.295Z,-2.10
2019-01-21T16:21:35.651Z,-2.20
2019-01-21T16:24:25.035Z,-2.20
2019-01-21T16:27:01.926Z,-2.40
2019-01-21T16:29:37.468Z,-2.60
2019-01-21T16:32:08.591Z,-2.60
2019-01-21T16:34:44.186Z,-2.50
2019-01-21T16:37:16.934Z,-2.50
2019-01-21T16:40:12.562Z,-2.60
2019-01-21T16:42:43.564Z,-2.60
2019-01-21T16:45:12.989Z,-2.70
2019-01-21T16:47:43.845Z,-2.60
2019-01-21T16:50:13.257Z,-2.60
2019-01-21T16:52:44.065Z,-2.80
2019-01-21T16:55:13.956Z,-2.90
2019-01-21T16:57:44.918Z,-2.90
2019-01-21T17:00:15.007Z,-3.00
2019-01-21T17:02:46.071Z,-3.00
2019-01-21T17:05:15.558Z,-3.10
2019-01-21T17:07:46.574Z,-3.10
2019-01-21T17:10:16.022Z,-3.20
2019-01-21T17:12:46.847Z,-3.30
2019-01-21T17:15:16.388Z,-3.30
2019-01-21T17:17:47.284Z,-3.30
2019-01-21T17:20:19.867Z,-3.30
2019-01-21T17:22:50.655Z,-3.30
2019-01-21T17:25:20.314Z,-3.30
2019-01-21T17:27:51.245Z,-3.30
2019-01-21T17:30:20.845Z,-3.30
2019-01-21T17:32:51.798Z,-3.30
2019-01-21T17:35:21.318Z,-3.40
2019-01-21T17:37:52.330Z,-3.50
2019-01-21T17:40:21.851Z,-3.60
2019-01-21T17:42:52.730Z,-3.80
2019-01-21T17:45:22.246Z,-3.70
2019-01-21T17:47:51.662Z,-3.40
2019-01-21T17:50:22.690Z,-3.60
2019-01-21T17:52:52.170Z,-3.70
2019-01-21T17:55:21.683Z,-3.70
2019-01-21T17:57:52.760Z,-3.60
2019-01-21T18:00:23.261Z,-3.60
2019-01-21T18:02:52.893Z,-3.70
2019-01-21T18:05:23.839Z,-3.90
2019-01-21T18:07:53.261Z,-3.80
2019-01-21T18:10:22.776Z,-3.80
2019-01-21T18:12:52.196Z,-3.80
2019-01-21T18:15:21.723Z,-3.80
2019-01-21T18:17:52.706Z,-3.80
2019-01-21T18:20:22.621Z,-3.90
2019-01-21T18:22:53.533Z,-4.00
2019-01-21T18:25:23.169Z,-4.10
2019-01-21T18:27:52.650Z,-4.10
2019-01-21T18:30:23.120Z,-4.10
2019-01-21T18:32:54.207Z,-4.10
2019-01-21T18:35:23.723Z,-4.20
2019-01-21T18:37:54.378Z,-4.30
2019-01-21T18:40:25.177Z,-4.30
2019-01-21T18:42:54.781Z,-4.40
2019-01-21T18:45:25.505Z,-4.30
2019-01-21T18:47:55.012Z,-4.20
2019-01-21T18:50:25.798Z,-4.20
2019-01-21T18:52:55.251Z,-4.40
2019-01-21T18:55:26.039Z,-4.50
2019-01-21T18:57:55.975Z,-4.70
2019-01-21T19:00:25.805Z,-4.70
2019-01-21T19:02:55.327Z,-4.70
2019-01-21T19:05:24.811Z,-4.80
2019-01-21T19:07:54.262Z,-5.00
2019-01-21T19:10:23.746Z,-5.10
2019-01-21T19:12:53.199Z,-4.90
2019-01-21T19:15:26.982Z,-4.70
2019-01-21T19:17:56.562Z,-4.70
2019-01-21T19:20:29.270Z,-4.80
2019-01-21T19:22:58.763Z,-4.80
2019-01-21T19:25:29.661Z,-4.70
2019-01-21T19:27:59.102Z,-4.70
2019-01-21T19:30:28.513Z,-4.70
2019-01-21T19:32:58.023Z,-4.70
2019-01-21T19:35:30.111Z,-4.60
2019-01-21T19:37:59.610Z,-4.70
2019-01-21T19:40:30.535Z,-4.80
2019-01-21T19:43:00.056Z,-4.80
2019-01-21T19:45:31.433Z,-4.70
2019-01-21T19:48:00.929Z,-4.80
2019-01-21T19:50:32.215Z,-4.90
2019-01-21T19:53:01.664Z,-4.90
2019-01-21T19:55:35.551Z,-5.00
2019-01-21T19:58:05.930Z,-5.00
2019-01-21T20:00:38.477Z,-5.00
2019-01-21T20:03:07.915Z,-5.00
2019-01-21T20:05:38.946Z,-5.00
2019-01-21T20:08:08.433Z,-5.10
2019-01-21T20:10:39.123Z,-5.00
2019-01-21T20:13:08.661Z,-5.00
2019-01-21T20:15:39.449Z,-5.10
2019-01-21T20:18:09.131Z,-5.10
2019-01-21T20:20:40.587Z,-5.10
2019-01-21T20:23:10.108Z,-5.10
2019-01-21T20:25:39.635Z,-5.10
2019-01-21T20:28:09.125Z,-5.30
2019-01-21T20:30:38.660Z,-5.40
2019-01-21T20:33:08.314Z,-5.60
2019-01-21T20:35:39.327Z,-6.00
2019-01-21T20:38:08.906Z,-6.00
2019-01-21T20:40:39.723Z,-5.70
2019-01-21T20:43:09.216Z,-5.60
2019-01-21T20:45:40.231Z,-5.60
2019-01-21T20:48:11.474Z,-5.50
2019-01-21T20:50:43.018Z,-5.60
2019-01-21T20:53:12.590Z,-5.70
2019-01-21T20:55:43.518Z,-5.60
2019-01-21T20:58:12.931Z,-5.50
2019-01-21T21:00:43.851Z,-5.50
2019-01-21T21:03:13.340Z,-5.80
2019-01-21T21:05:44.151Z,-5.80
2019-01-21T21:08:13.641Z,-5.80
2019-01-21T21:10:44.365Z,-5.80
2019-01-21T21:13:13.780Z,-5.90
2019-01-21T21:15:43.295Z,-5.80
2019-01-21T21:18:12.783Z,-5.70
2019-01-21T21:20:42.299Z,-5.70
2019-01-21T21:23:11.721Z,-5.80
2019-01-21T21:25:42.443Z,-5.80
2019-01-21T21:28:11.857Z,-5.70
2019-01-21T21:30:41.378Z,-5.80
2019-01-21T21:33:10.791Z,-6.00
2019-01-21T21:35:40.322Z,-6.00
2019-01-21T21:38:09.810Z,-5.90
2019-01-21T21:40:39.338Z,-5.90
2019-01-21T21:43:08.820Z,-5.90
2019-01-21T21:45:38.640Z,-5.90
2019-01-21T21:48:08.122Z,-5.90
2019-01-21T21:50:39.047Z,-5.90
2019-01-21T21:53:08.504Z,-5.90
2019-01-21T21:55:38.058Z,-6.00
2019-01-21T21:58:07.982Z,-6.00
2019-01-21T22:00:38.911Z,-6.00
2019-01-21T22:03:08.395Z,-6.00
2019-01-21T22:05:37.906Z,-5.90
2019-01-21T22:08:07.326Z,-5.90
2019-01-21T22:10:36.999Z,-5.80
2019-01-21T22:13:06.594Z,-5.60
2019-01-21T22:15:37.416Z,-5.50
2019-01-21T22:18:06.839Z,-5.60
2019-01-21T22:20:37.888Z,-5.70
2019-01-21T22:23:07.373Z,-5.90
2019-01-21T22:25:38.196Z,-5.70
2019-01-21T22:28:07.647Z,-5.50
2019-01-21T22:30:38.562Z,-5.50
2019-01-21T22:33:08.043Z,-5.50
2019-01-21T22:35:37.527Z,-5.30
2019-01-21T22:38:07.043Z,-5.10
2019-01-21T22:40:38.262Z,-5.00
2019-01-21T22:43:07.714Z,-4.90
2019-01-21T22:45:37.211Z,-4.80
2019-01-21T22:48:06.681Z,-4.90
2019-01-21T22:50:36.094Z,-4.90
2019-01-21T22:53:05.546Z,-4.90
2019-01-21T22:55:36.331Z,-4.90
2019-01-21T22:58:05.852Z,-5.00
2019-01-21T23:00:44.330Z,-5.00
2019-01-21T23:03:14.346Z,-5.10
2019-01-21T23:05:43.866Z,-5.20
2019-01-21T23:08:13.378Z,-5.20
2019-01-21T23:10:42.870Z,-5.10
2019-01-21T23:13:12.386Z,-4.80
2019-01-21T23:15:43.275Z,-4.70
2019-01-21T23:18:12.903Z,-4.60
2019-01-21T23:20:42.298Z,-4.50
2019-01-21T23:23:11.819Z,-4.70
2019-01-21T23:25:42.699Z,-5.00
2019-01-21T23:28:12.193Z,-5.10
2019-01-21T23:30:41.631Z,-5.00
2019-01-21T23:33:11.160Z,-4.70
2019-01-21T23:35:40.656Z,-5.10
2019-01-21T23:38:10.063Z,-5.00
2019-01-21T23:40:40.893Z,-5.10
2019-01-21T23:43:11.913Z,-5.20
2019-01-21T23:45:41.447Z,-5.10
2019-01-21T23:48:11.126Z,-5.00
2019-01-21T23:50:42.038Z,-4.90
2019-01-21T23:53:11.528Z,-4.90
2019-01-21T23:55:41.047Z,-4.90
2019-01-21T23:58:10.476Z,-5.00
